D/T METAR WX W/DIR W/SPE G/SPE TEMP DEWP
25/02/20 14:20 EGXE 251420Z 26013KT 9999 FEW018CB BKN250 06/M00 Q0992 TEMPO SCT020 RMK BLU TEMPO WHT W (260°) 15.0mph 6°C 0°C
25/02/20 13:50 EGXE 251350Z 27011KT 9999 FEW020 BKN250 06/00 Q0992 NOSIG RMK BLU BLU W (270°) 12.7mph 6°C 0°C
25/02/20 13:20 EGXE 251320Z 26012KT 9999 FEW020TCU SCT130 06/02 Q0993 NOSIG RMK BLU BLU W (260°) 13.8mph 6°C 2°C
25/02/20 12:50 EGXE 251250Z 26012KT 9999 FEW020 07/01 Q0993 NOSIG RMK BLU BLU W (260°) 13.8mph 7°C 1°C
25/02/20 12:20 EGXE 251220Z 27010KT 9999 FEW020 SCT025 07/01 Q0993 NOSIG RMK BLU BLU W (270°) 11.5mph 7°C 1°C
25/02/20 11:50 EGXE 251150Z 27010KT 9999 FEW018 SCT025 06/01 Q0994 NOSIG RMK BLU BLU W (270°) 11.5mph 6°C 1°C
25/02/20 11:21 EGXE 251121Z 26014KT 9999 FEW018 SCT025 07/01 Q0994 NOSIG RMK BLU BLU W (260°) 16.1mph 7°C 1°C
25/02/20 10:50 EGXE 251050Z 26014KT 9999 FEW018 06/01 Q0994 TEMPO SCT018 RMK BLU TEMPO WHT W (260°) 16.1mph 6°C 1°C
25/02/20 10:20 EGXE 251020Z 27012KT 9999 FEW015 05/01 Q0994 TEMPO SCT018 RMK BLU TEMPO WHT W (270°) 13.8mph 5°C 1°C
25/02/20 09:50 EGXE 250950Z 25009KT 9999 FEW015 SCT050 04/02 Q0995 TEMPO SCT018 RMK BLU TEMPO WHT WSW (250°) 10.4mph 4°C 2°C
25/02/20 09:20 EGXE 250920Z 22006KT 9999 FEW018 BKN050 04/02 Q0995 TEMPO SCT018 RMK BLU TEMPO WHT SW (220°) 6.9mph 4°C 2°C
25/02/20 08:50 EGXE 250850Z 17006KT 9999 FEW018 BKN025 03/02 Q0995 TEMPO SCT018 RMK BLU TEMPO WHT S (170°) 6.9mph 3°C 2°C
25/02/20 08:20 EGXE 250820Z 19006KT 9999 -SHRA FEW016 BKN025 03/01 Q0995 TEMPO SCT016 RMK BLU TEMPO WHT -SHRA S (190°) 6.9mph 3°C 1°C
25/02/20 07:50 EGXE 250750Z 19008KT 9999 -SHRA FEW016 BKN025 03/00 Q0995 TEMPO SCT016 RMK BLU TEMPO WHT -SHRA S (190°) 9.2mph 3°C 0°C
25/02/20 07:20 EGXE 250720Z 22006KT 9999 SCT025 02/M01 Q0995 RMK BLU SW (220°) 6.9mph 2°C -1°C
25/02/20 06:50 EGXE 250650Z 32004KT 9999 SCT025 BKN250 04/00 Q0995 RMK BLU NW (320°) 4.6mph 4°C 0°C
25/02/20 05:50 EGXE 250550Z AUTO 34005KT 9999 BKN024/// SCT032/// 04/01 Q0996 NNW (340°) 5.8mph 4°C 1°C
25/02/20 04:50 EGXE 250450Z AUTO 30004KT 9999 FEW017/// 03/M00 Q0996 RERA WNW (300°) 4.6mph 3°C 0°C
25/02/20 03:50 EGXE 250350Z AUTO 26013KT 9999 NCD 04/01 Q0996 W (260°) 15.0mph 4°C 1°C
25/02/20 02:50 EGXE 250250Z AUTO 26018KT 9999 NCD 04/M00 Q0996 W (260°) 20.7mph 4°C 0°C
25/02/20 01:50 EGXE 250150Z AUTO 27018G30KT 9999 NCD 04/00 Q0996 W (270°) 20.7mph 34.5mph 4°C 0°C
25/02/20 00:50 EGXE 250050Z AUTO 26019G29KT 9999 NCD 04/01 Q0997 W (260°) 21.9mph 33.4mph 4°C 1°C
24/02/20 23:50 EGXE 242350Z AUTO 26017KT 9999 NCD 04/01 Q0997 W (260°) 19.6mph 4°C 1°C
24/02/20 22:50 EGXE 242250Z AUTO 26021G31KT 9999 NCD 04/01 Q0997 W (260°) 24.2mph 35.7mph 4°C 1°C
24/02/20 21:50 EGXE 242150Z AUTO 26020KT 9999 NCD 04/01 Q0997 W (260°) 23.0mph 4°C 1°C
24/02/20 20:50 EGXE 242050Z AUTO 26020G31KT 9999 NCD 05/01 Q0997 W (260°) 23.0mph 35.7mph 5°C 1°C
24/02/20 19:50 EGXE 241950Z AUTO 27019KT 9999 NCD 05/01 Q0996 W (270°) 21.9mph 5°C 1°C
24/02/20 18:50 EGXE 241850Z AUTO 26028KT 9999 NCD 06/01 Q0995 W (260°) 32.2mph 6°C 1°C
24/02/20 17:50 EGXE 241750Z AUTO 25024G39KT 9999 NCD 06/02 Q0994 WSW (250°) 27.6mph 44.9mph 6°C 2°C
24/02/20 16:50 EGXE 241650Z 25023G33KT 9999 FEW020 07/03 Q0994 RMK BLU WSW (250°) 26.5mph 38.0mph 7°C 3°C
24/02/20 15:50 EGXE 241550Z 24027G41KT 9999 FEW020 09/05 Q0993 RMK BLU WSW (240°) 31.1mph 47.2mph 9°C 5°C
24/02/20 14:50 EGXE 241450Z 24027G38KT 9999 FEW025 10/07 Q0993 RMK BLU WSW (240°) 31.1mph 43.7mph 10°C 7°C
24/02/20 13:50 EGXE 241350Z 24019KT 9999 FEW025 09/06 Q0993 RMK BLU WSW (240°) 21.9mph 9°C 6°C
24/02/20 13:20 EGXE 241320Z 23008KT 9999 FEW014 SCT250 07/07 Q0993 RMK BLU SW (230°) 9.2mph 7°C 7°C
24/02/20 12:50 EGXE 241250Z 14006KT 9999 FEW002 SCT014 BKN250 03/03 Q0994 BECMG 24017G27KT SCT015 RRMK BLACKGRN BECMG WHT SE (140°) 6.9mph 3°C 3°C
24/02/20 12:35 EGXE 241235Z 12007KT 5000 1000SW BR FEW002 BKN014 BKN250 03/02 Q0995 BECMG 24017G27KT 9999 NSW SCT015 RMK BLACKAMB BECMG WHT BR ESE (120°) 8.1mph 3°C 2°C
24/02/20 11:55 EGXE 241155Z 16007KT 5000 BR SCT002 BKN015 OVC250 02/01 Q0996 BECMG 24017G27KT 9999 NSW SCT015 RMK BLACKAMB BECMG WHT BR SSE (160°) 8.1mph 2°C 1°C
24/02/20 11:20 EGXE 241120Z 20006KT 4000 BR OVC003 01/01 Q0997 BECMG 5000 SCT006 RMK BLACKYLO2 BECMG YLO1 BR SSW (200°) 6.9mph 1°C 1°C
24/02/20 10:50 EGXE 241050Z 20005KT 3000 BR OVC002 01/01 Q0997 BECMG 5000 BKN004 RMK BLACKAMB BECMG YLO2 BR SSW (200°) 5.8mph 1°C 1°C
24/02/20 10:20 EGXE 241020Z 21005KT 3000 -RA OVC002 01/01 Q0998 NOSIG RMK BLACKAMB AMB -RA SSW (210°) 5.8mph 1°C 1°C
24/02/20 09:50 EGXE 240950Z 16007KT 4500 -RA OVC003 01/01 Q0999 TEMPO 3000 RADZ BKN002 RMK BLACKYLO2 TEMPO AMB -RA SSE (160°) 8.1mph 1°C 1°C
24/02/20 09:20 EGXE 240920Z 16010KT 5000 -RA OVC005 01/01 Q1001 TEMPO 3000 RADZ BKN004 RMK BLACKYLO1 TEMPO YLO2 -RA SSE (160°) 11.5mph 1°C 1°C
24/02/20 08:50 EGXE 240850Z 15010KT 5000 -RA OVC005 01/00 Q1002 TEMPO 2000 -RASN SCT002 RMK BLACKYLO1 TEMPO RED -RA SSE (150°) 11.5mph 1°C 0°C
24/02/20 08:29 EGXE 240829Z 14009KT 5000 -RASN OVC003 01/00 Q1002 NOSIG RMK BLACKYLO2 YLO2 -RA -SN SE (140°) 10.4mph 1°C 0°C
24/02/20 08:12 EGXE 240812Z 14008KT 1000 -SN OVC003 00/00 Q1003 TEMPO 0400 SN OVC002 RMK BLACKAMB TEMPO RED -SN SE (140°) 9.2mph 0°C 0°C
24/02/20 07:20 EGXE 240720Z 12010KT 1000 -SN OVC003 00/00 Q1006 RMK AMB -SN ESE (120°) 11.5mph 0°C 0°C
24/02/20 06:50 EGXE 240650Z AUTO 11009KT 0650 +SN OVC002/// 00/M00 Q1007 +SN ESE (110°) 10.4mph 0°C 0°C
24/02/20 05:50 EGXE 240550Z AUTO 12007KT 0700 +SN BKN002/// 00/M00 Q1010 +SN ESE (120°) 8.1mph 0°C 0°C